Time;durP1;ratioP1;P1;durP2;ratioP2;P2;SDS_P1;SDS_P2;PMS_P1;PMS_P2;Temp;Humidity;BMP_temperature;BMP_pressure;BME280_temperature;BME280_humidity;BME280_pressure;Samples;Min_cycle;Max_cycle;Signal;HPM_P1;HPM_P2
2022/09/30 00:00:30;;;;;;;11.68;7.28;;;4.90;99.90;;;-144.05;81.66;125687.94;5033040;28;20034;-76
2022/09/30 00:02:56;;;;;;;12.80;7.15;;;4.90;99.90;;;-144.05;81.79;125687.94;5034379;28;20029;-77
2022/09/30 00:05:22;;;;;;;12.05;8.77;;;4.90;99.90;;;-144.05;81.77;125687.94;5034060;28;20032;-78
2022/09/30 00:07:47;;;;;;;10.88;8.20;;;4.90;99.90;;;-144.05;82.02;125687.94;5034150;28;20469;-79
2022/09/30 00:10:16;;;;;;;12.10;8.25;;;5.00;99.90;;;-144.05;81.86;125687.94;5032752;28;20148;-78
2022/09/30 00:12:42;;;;;;;13.73;8.20;;;5.00;99.90;;;-144.05;82.11;125687.94;5032840;28;20063;-78
2022/09/30 00:15:08;;;;;;;12.25;8.35;;;5.00;99.90;;;-144.05;82.32;125687.94;5033948;28;20477;-78
2022/09/30 00:17:34;;;;;;;12.18;8.55;;;5.00;99.90;;;-144.05;82.06;125687.94;5034080;28;20439;-78
2022/09/30 00:20:00;;;;;;;12.90;8.98;;;5.10;99.90;;;-144.05;82.01;125687.94;5033751;28;20087;-76
2022/09/30 00:22:26;;;;;;;11.68;8.05;;;5.00;99.90;;;-144.05;82.04;125687.94;5032209;28;20033;-76
2022/09/30 00:24:52;;;;;;;15.40;9.07;;;5.00;99.90;;;-144.05;81.84;125687.94;5033335;28;20037;-77
2022/09/30 00:27:19;;;;;;;11.15;7.90;;;5.00;99.90;;;-144.05;82.16;125687.94;5033323;28;20037;-80
2022/09/30 00:29:45;;;;;;;10.88;7.93;;;5.00;99.90;;;-144.05;82.36;125687.94;5033648;28;20037;-78
2022/09/30 00:32:11;;;;;;;13.48;8.63;;;5.00;99.90;;;-144.05;82.24;125687.94;5034056;28;20025;-77
2022/09/30 00:34:37;;;;;;;12.50;8.82;;;5.00;99.90;;;-144.05;82.33;125687.94;5033815;28;20081;-78
2022/09/30 00:37:03;;;;;;;15.57;8.60;;;5.10;99.90;;;-144.05;82.42;125687.94;5033547;28;20461;-78
2022/09/30 00:39:29;;;;;;;11.80;8.73;;;5.10;99.90;;;-144.05;82.52;125687.94;5031711;28;20461;-77
2022/09/30 00:42:01;;;;;;;14.80;8.63;;;5.10;99.90;;;-144.05;82.73;125687.94;5032287;28;20040;-78
2022/09/30 00:44:55;;;;;;;13.18;8.70;;;5.10;99.90;;;-144.05;82.67;125687.94;5033426;28;20033;-77
2022/09/30 00:47:24;;;;;;;14.52;10.30;;;5.10;99.90;;;-144.05;82.99;125687.94;5033407;28;20029;-76
2022/09/30 00:49:52;;;;;;;13.18;9.00;;;5.20;99.90;;;-144.05;83.10;125687.94;5033542;28;20030;-77
2022/09/30 00:52:19;;;;;;;16.92;9.05;;;5.30;99.90;;;-144.05;82.71;125687.94;5033335;28;20036;-77
2022/09/30 00:54:45;;;;;;;14.65;8.52;;;5.20;99.90;;;-144.05;82.56;125687.94;5033416;28;20084;-79
2022/09/30 00:57:11;;;;;;;12.35;7.32;;;5.20;99.90;;;-144.05;82.37;125687.94;5032197;28;20388;-78
2022/09/30 00:59:50;;;;;;;15.80;8.68;;;5.20;99.90;;;-144.05;82.51;125687.94;5033210;28;20079;-78
2022/09/30 01:02:16;;;;;;;10.50;8.07;;;5.10;99.90;;;-144.05;82.69;125687.94;5033619;28;20391;-79
2022/09/30 01:04:45;;;;;;;10.38;7.10;;;5.10;99.90;;;-144.05;82.53;125687.94;5033147;28;20028;-77
2022/09/30 01:07:13;;;;;;;10.68;7.75;;;5.10;99.90;;;-144.05;82.51;125687.94;5033501;28;20036;-78
2022/09/30 01:09:43;;;;;;;13.38;7.93;;;5.10;99.90;;;-144.05;82.35;125687.94;5033479;28;20030;-79
2022/09/30 01:12:17;;;;;;;15.55;8.82;;;5.10;99.90;;;-144.05;82.57;125687.94;5031609;28;20040;-79
2022/09/30 01:14:52;;;;;;;12.40;8.00;;;5.00;99.90;;;-144.05;82.50;125687.94;5032644;28;20558;-78
2022/09/30 01:18:06;;;;;;;15.65;9.10;;;5.00;99.90;;;-144.05;82.76;125687.94;5031283;28;20033;-76
2022/09/30 01:20:58;;;;;;;11.65;8.25;;;5.00;99.90;;;-144.05;82.58;125687.94;5032608;28;20571;-76
2022/09/30 01:24:19;;;;;;;11.73;7.38;;;5.10;99.90;;;-144.05;82.22;125687.94;5031466;28;20029;-79
2022/09/30 01:27:46;;;;;;;17.15;8.18;;;5.00;99.90;;;-144.05;82.07;125687.94;5032930;28;20029;-77
2022/09/30 01:30:20;;;;;;;12.43;7.13;;;5.00;99.90;;;-144.05;82.22;125687.94;5033069;28;20064;-78
2022/09/30 01:32:58;;;;;;;13.18;8.23;;;4.90;99.90;;;-144.05;82.34;125687.94;5032916;28;20488;-78
2022/09/30 01:36:37;;;;;;;14.63;8.02;;;4.90;99.90;;;-144.05;82.24;125687.94;5031602;28;20037;-77
2022/09/30 01:39:28;;;;;;;14.38;7.93;;;4.80;99.90;;;-144.05;82.26;125687.94;5031188;28;20034;-77
2022/09/30 01:42:47;;;;;;;10.52;7.47;;;4.80;99.90;;;-144.05;82.12;125687.94;5032593;28;20101;-77
2022/09/30 01:45:41;;;;;;;10.23;7.50;;;4.80;99.90;;;-144.05;82.47;125687.94;5022473;28;20041;-78
2022/09/30 01:48:33;;;;;;;14.85;7.93;;;4.80;99.90;;;-144.05;82.31;125687.94;5032040;28;20035;-77
2022/09/30 01:51:16;;;;;;;12.73;8.32;;;4.80;99.90;;;-144.05;82.44;125687.94;5032115;28;20049;-78
2022/09/30 01:54:20;;;;;;;12.35;7.65;;;4.80;99.90;;;-144.05;82.32;125687.94;5050421;28;20029;-76
2022/09/30 01:57:09;;;;;;;10.25;7.13;;;4.90;99.90;;;-144.05;81.98;125687.94;5048682;28;20118;-78
2022/09/30 01:59:47;;;;;;;10.65;7.70;;;4.90;99.90;;;-144.05;82.00;125687.94;5035482;28;20048;-79
2022/09/30 02:02:28;;;;;;;11.93;7.65;;;4.90;99.90;;;-144.05;81.82;125687.94;5032939;28;20018;-78
2022/09/30 02:05:11;;;;;;;11.45;7.90;;;4.80;99.90;;;-144.05;81.92;125687.94;5032610;28;20444;-78
2022/09/30 02:07:48;;;;;;;14.50;8.25;;;4.70;99.90;;;-144.05;82.34;125687.94;5030949;28;20034;-76
2022/09/30 02:10:40;;;;;;;14.15;7.72;;;4.70;99.90;;;-144.05;82.52;125687.94;5031324;28;20068;-77
2022/09/30 02:13:29;;;;;;;15.18;8.13;;;4.70;99.90;;;-144.05;82.74;125687.94;5032134;28;20030;-78
2022/09/30 02:16:11;;;;;;;13.02;8.32;;;4.80;99.90;;;-144.05;83.13;125687.94;5031328;28;20029;-80
2022/09/30 02:18:51;;;;;;;12.68;8.77;;;4.80;99.90;;;-144.05;83.29;125687.94;5030566;28;20030;-77
2022/09/30 02:21:29;;;;;;;12.60;8.35;;;4.80;99.90;;;-144.05;83.16;125687.94;5032376;28;20115;-77
2022/09/30 02:24:05;;;;;;;13.75;7.85;;;4.90;99.90;;;-144.05;82.65;125687.94;5030906;28;20029;-78
2022/09/30 02:26:42;;;;;;;11.63;7.90;;;4.90;99.90;;;-144.05;82.57;125687.94;5033036;28;20068;-79
2022/09/30 02:29:23;;;;;;;14.63;8.25;;;4.90;99.90;;;-144.05;82.52;125687.94;5042394;28;20096;-78
2022/09/30 02:32:02;;;;;;;13.77;7.38;;;4.90;99.90;;;-144.05;82.30;125687.94;5043553;28;20029;-79
2022/09/30 02:34:51;;;;;;;13.85;7.88;;;4.90;99.90;;;-144.05;82.11;125687.94;5043357;28;20033;-77
2022/09/30 02:37:51;;;;;;;10.93;6.90;;;4.90;99.90;;;-144.05;82.09;125687.94;5041041;28;20068;-77
2022/09/30 02:40:38;;;;;;;12.85;7.97;;;4.80;99.90;;;-144.05;82.00;125687.94;5043350;28;20558;-76
2022/09/30 02:43:06;;;;;;;12.65;7.35;;;4.80;99.90;;;-144.05;82.22;125687.94;5047100;28;20025;-78
2022/09/30 02:46:46;;;;;;;11.60;7.55;;;4.70;99.90;;;-144.05;82.32;125687.94;5048194;23;20041;-76
2022/09/30 02:49:38;;;;;;;15.68;7.20;;;4.70;99.90;;;-144.05;82.17;125687.94;5010688;28;20072;-77
2022/09/30 02:52:36;;;;;;;9.07;6.72;;;4.70;99.90;;;-144.05;81.91;125687.94;5031850;28;20021;-77
2022/09/30 02:55:26;;;;;;;10.48;6.60;;;4.70;99.90;;;-144.05;81.74;125687.94;5017620;28;20121;-77
2022/09/30 02:58:15;;;;;;;9.35;7.07;;;4.60;99.90;;;-144.05;82.15;125687.94;5031818;28;20041;-76
2022/09/30 03:00:41;;;;;;;8.85;7.03;;;4.50;99.90;;;-144.05;82.04;125687.94;5031594;28;20033;-73
2022/09/30 03:03:31;;;;;;;9.70;6.75;;;4.50;99.90;;;-144.05;81.77;125687.94;5032571;28;20021;-77
2022/09/30 03:05:57;;;;;;;11.15;7.72;;;4.50;99.90;;;-144.05;81.77;125687.94;5034109;28;20133;-77
2022/09/30 03:08:24;;;;;;;14.20;7.78;;;4.40;99.90;;;-144.05;81.84;125687.94;5035307;28;20044;-79
2022/09/30 03:10:51;;;;;;;10.68;7.13;;;4.50;99.90;;;-144.05;81.65;125687.94;5035256;28;20037;-76
2022/09/30 03:13:51;;;;;;;8.52;6.57;;;4.40;99.90;;;-144.05;81.72;125687.94;5035448;28;20033;-75
2022/09/30 03:16:57;;;;;;;12.55;7.30;;;4.30;99.90;;;-144.05;81.71;125687.94;5035049;28;20033;-75
2022/09/30 03:19:58;;;;;;;10.50;6.13;;;4.30;99.90;;;-144.05;81.86;125687.94;5033488;28;20030;-77
2022/09/30 03:22:54;;;;;;;10.40;6.90;;;4.20;99.90;;;-144.05;81.44;125687.94;5033366;28;20087;-76
2022/09/30 03:25:46;;;;;;;12.20;7.00;;;4.10;99.90;;;-144.05;81.61;125687.94;5034851;28;20378;-77
2022/09/30 03:28:24;;;;;;;10.02;6.72;;;4.10;99.90;;;-144.05;81.93;125687.94;5034601;28;20045;-77
2022/09/30 03:31:24;;;;;;;12.07;7.20;;;4.00;99.90;;;-144.05;81.85;125687.94;5033450;28;20211;-77
2022/09/30 03:34:14;;;;;;;10.23;6.47;;;4.00;99.90;;;-144.05;81.93;125687.94;5033243;28;20037;-75
2022/09/30 03:37:07;;;;;;;11.75;7.68;;;4.00;99.90;;;-144.05;82.00;125687.94;5034614;28;20030;-76
2022/09/30 03:40:16;;;;;;;10.52;8.30;;;4.10;99.90;;;-144.05;81.83;125687.94;5037552;28;20038;-76
2022/09/30 03:43:02;;;;;;;12.70;7.38;;;4.00;99.90;;;-144.05;81.82;125687.94;5033145;28;20121;-77
2022/09/30 03:45:58;;;;;;;10.70;6.93;;;4.10;99.90;;;-144.05;81.64;125687.94;5034570;28;20099;-75
2022/09/30 03:48:30;;;;;;;11.25;6.93;;;4.10;99.90;;;-144.05;81.70;125687.94;5033491;28;20580;-77
2022/09/30 03:50:59;;;;;;;12.55;7.75;;;4.10;99.90;;;-144.05;81.47;125687.94;5034582;28;20052;-77
2022/09/30 03:53:27;;;;;;;12.27;7.65;;;4.10;99.90;;;-144.05;81.84;125687.94;5034354;28;20029;-77
2022/09/30 03:55:53;;;;;;;8.07;6.07;;;4.00;99.90;;;-144.05;81.84;125687.94;5034370;28;20408;-76
2022/09/30 03:58:22;;;;;;;10.25;7.35;;;4.00;99.90;;;-144.05;81.74;125687.94;5033985;28;20033;-77
2022/09/30 04:00:53;;;;;;;11.40;7.10;;;3.90;99.90;;;-144.05;81.91;125687.94;5034226;28;20070;-77
2022/09/30 04:03:21;;;;;;;10.07;7.78;;;3.90;99.90;;;-144.05;81.93;125687.94;5035243;28;20033;-79
2022/09/30 04:05:48;;;;;;;12.55;8.05;;;3.90;99.90;;;-144.05;82.01;125687.94;5033133;28;20025;-76
2022/09/30 04:08:16;;;;;;;12.18;7.88;;;3.90;99.90;;;-144.05;82.01;125687.94;5034748;28;20045;-76
2022/09/30 04:10:43;;;;;;;12.43;7.85;;;3.90;99.90;;;-144.05;81.95;125687.94;5035365;28;20057;-76
2022/09/30 04:13:11;;;;;;;8.82;6.63;;;3.90;99.90;;;-144.05;81.92;125687.94;5034563;28;20037;-75
2022/09/30 04:15:40;;;;;;;11.50;7.43;;;3.80;99.90;;;-144.05;81.73;125687.94;5034303;28;20393;-77
2022/09/30 04:18:07;;;;;;;11.55;7.38;;;3.80;99.90;;;-144.05;81.78;125687.94;5033139;28;20461;-77
2022/09/30 04:20:33;;;;;;;9.90;7.07;;;3.70;99.90;;;-144.05;81.66;125687.94;5034186;28;20075;-77
2022/09/30 04:23:01;;;;;;;9.60;7.05;;;3.70;99.90;;;-144.05;81.74;125687.94;5034762;28;20029;-75
2022/09/30 04:25:28;;;;;;;10.05;7.05;;;3.60;99.90;;;-144.05;81.90;125687.94;5034367;28;20029;-77
2022/09/30 04:27:55;;;;;;;14.38;7.95;;;3.60;99.90;;;-144.05;82.10;125687.94;5034029;28;20037;-76
2022/09/30 04:30:21;;;;;;;11.23;7.47;;;3.50;99.90;;;-144.05;81.81;125687.94;5032970;28;20029;-77
2022/09/30 04:32:47;;;;;;;14.32;7.90;;;3.50;99.90;;;-144.05;81.94;125687.94;5033781;28;20446;-76
2022/09/30 04:35:14;;;;;;;10.88;7.75;;;3.50;99.90;;;-144.05;82.21;125687.94;5033873;28;20072;-76
2022/09/30 04:37:47;;;;;;;10.68;7.93;;;3.50;99.90;;;-144.05;82.07;125687.94;5032745;28;20044;-77
2022/09/30 04:40:15;;;;;;;21.15;9.30;;;3.60;99.90;;;-144.05;81.83;125687.94;5033582;28;20113;-76
2022/09/30 04:42:42;;;;;;;11.48;8.00;;;3.60;99.90;;;-144.05;81.88;125687.94;5033603;28;20036;-76
2022/09/30 04:45:11;;;;;;;17.08;8.60;;;3.50;99.90;;;-144.05;82.37;125687.94;5033220;28;20025;-76
2022/09/30 04:47:42;;;;;;;11.65;7.72;;;3.60;99.90;;;-144.05;82.14;125687.94;5033808;28;20025;-76
2022/09/30 04:50:08;;;;;;;13.80;8.65;;;3.60;99.90;;;-144.05;82.05;125687.94;5033527;28;20032;-76
2022/09/30 04:52:34;;;;;;;13.20;7.65;;;3.60;99.90;;;-144.05;81.99;125687.94;5033647;28;20033;-76
2022/09/30 04:54:59;;;;;;;12.52;8.13;;;3.60;99.90;;;-144.05;82.06;125687.94;5032446;28;20025;-76
2022/09/30 04:57:26;;;;;;;13.75;8.90;;;3.60;99.90;;;-144.05;81.75;125687.94;5033898;28;20036;-78
2022/09/30 04:59:52;;;;;;;11.07;7.43;;;3.50;99.90;;;-144.05;82.01;125687.94;5034342;28;20109;-75
2022/09/30 05:02:18;;;;;;;11.80;7.95;;;3.50;99.90;;;-144.05;82.19;125687.94;5034023;28;20034;-77
2022/09/30 05:04:44;;;;;;;14.27;9.55;;;3.50;99.90;;;-144.05;82.48;125687.94;5033377;28;20539;-77
2022/09/30 05:07:10;;;;;;;12.35;8.45;;;3.50;99.90;;;-144.05;82.42;125687.94;5033310;28;20029;-78
2022/09/30 05:09:36;;;;;;;13.98;8.85;;;3.60;99.90;;;-144.05;82.54;125687.94;5033149;28;20030;-76
2022/09/30 05:12:02;;;;;;;17.45;10.25;;;3.60;99.90;;;-144.05;82.98;125687.94;5039980;28;20034;-75
2022/09/30 05:14:29;;;;;;;22.15;12.57;;;3.70;99.90;;;-144.05;83.99;125687.94;5040550;28;20044;-76
2022/09/30 05:16:55;;;;;;;25.23;15.20;;;3.90;99.90;;;-144.05;84.34;125687.94;5033147;28;20029;-76
2022/09/30 05:19:21;;;;;;;17.73;12.10;;;4.10;99.90;;;-144.05;83.40;125687.94;5032736;28;20123;-76
2022/09/30 05:21:47;;;;;;;17.58;10.23;;;4.20;99.90;;;-144.05;82.91;125687.94;5032652;28;20147;-77
2022/09/30 05:24:14;;;;;;;14.32;8.60;;;4.20;99.90;;;-144.05;83.02;125687.94;5031704;28;20512;-77
2022/09/30 05:26:39;;;;;;;15.80;9.23;;;4.20;99.90;;;-144.05;82.72;125687.94;5031857;28;20606;-76
2022/09/30 05:29:08;;;;;;;17.90;9.23;;;4.10;99.90;;;-144.05;82.62;125687.94;5032255;28;20110;-75
2022/09/30 05:31:34;;;;;;;13.98;8.63;;;4.00;99.90;;;-144.05;82.44;125687.94;5032754;28;20444;-76
2022/09/30 05:34:01;;;;;;;13.90;8.75;;;4.00;99.90;;;-144.05;82.60;125687.94;5031235;28;20040;-74
2022/09/30 05:36:27;;;;;;;14.85;10.13;;;3.90;99.90;;;-144.05;82.72;125687.94;5032347;28;20105;-76
2022/09/30 05:38:54;;;;;;;16.60;10.55;;;3.90;99.90;;;-144.05;82.88;125687.94;5032335;28;20030;-77
2022/09/30 05:41:20;;;;;;;14.38;9.77;;;3.90;99.90;;;-144.05;83.00;125687.94;5032321;28;20117;-76
2022/09/30 05:43:47;;;;;;;18.30;10.43;;;4.00;99.90;;;-144.05;82.78;125687.94;5031690;28;20056;-76
2022/09/30 05:46:16;;;;;;;16.55;10.55;;;3.90;99.90;;;-144.05;82.71;125687.94;5033709;28;20480;-77
2022/09/30 05:48:43;;;;;;;21.95;12.70;;;4.00;99.90;;;-144.05;83.65;125687.94;5032117;28;20026;-75
2022/09/30 05:51:10;;;;;;;24.15;12.75;;;4.10;99.90;;;-144.05;84.09;125687.94;5030939;28;20091;-77
2022/09/30 05:53:38;;;;;;;24.15;14.40;;;4.20;99.90;;;-144.05;83.61;125687.94;5032768;28;20037;-77
2022/09/30 05:56:06;;;;;;;25.65;12.80;;;4.30;99.90;;;-144.05;83.61;125687.94;5032504;28;20041;-77
2022/09/30 05:58:33;;;;;;;26.00;14.80;;;4.40;99.90;;;-144.05;83.74;125687.94;5031472;28;20034;-77
2022/09/30 06:01:13;;;;;;;24.70;12.90;;;4.50;99.90;;;-144.05;83.28;125687.94;5032559;28;20036;-77
2022/09/30 06:03:44;;;;;;;27.10;14.40;;;4.60;99.90;;;-144.05;83.28;125687.94;5032905;28;20036;-79
2022/09/30 06:06:10;;;;;;;22.17;12.63;;;4.70;99.90;;;-144.05;82.90;125687.94;5033233;28;20445;-77
2022/09/30 06:08:36;;;;;;;23.67;14.80;;;4.80;99.90;;;-144.05;82.79;125687.94;5032959;28;20220;-77
2022/09/30 06:11:22;;;;;;;29.15;15.25;;;4.90;99.90;;;-144.05;82.88;125687.94;5032236;28;20037;-76
2022/09/30 06:13:48;;;;;;;21.10;11.63;;;5.00;99.90;;;-144.05;82.87;125687.94;5048430;28;20030;-79
2022/09/30 06:16:20;;;;;;;19.60;11.77;;;5.10;99.90;;;-144.05;83.01;125687.94;5031726;28;20747;-78
2022/09/30 06:18:46;;;;;;;17.55;10.95;;;5.20;99.90;;;-144.05;82.90;125687.94;5033228;28;20029;-80
2022/09/30 06:21:16;;;;;;;18.00;9.98;;;5.30;99.90;;;-144.05;82.46;125687.94;5033366;28;20085;-79
2022/09/30 06:23:43;;;;;;;18.25;11.23;;;5.30;99.90;;;-144.05;82.24;125687.94;5034184;28;20040;-78
2022/09/30 06:26:13;;;;;;;20.42;11.73;;;5.40;99.90;;;-144.05;81.39;125687.94;5032527;28;20036;-79
2022/09/30 06:28:40;;;;;;;17.15;10.30;;;5.50;99.90;;;-144.05;81.76;125687.94;5032015;28;20029;-78
2022/09/30 06:31:07;;;;;;;17.58;10.95;;;5.70;99.90;;;-144.05;81.11;125687.94;5033267;28;20104;-77
2022/09/30 06:33:33;;;;;;;22.42;11.82;;;5.80;99.90;;;-144.05;80.98;125687.94;5032086;28;20079;-78
2022/09/30 06:36:03;;;;;;;18.67;10.88;;;6.00;99.90;;;-144.05;80.64;125687.94;5032955;28;20029;-78
2022/09/30 06:38:32;;;;;;;15.90;9.85;;;6.10;99.90;;;-144.05;79.92;125687.94;5035050;28;20022;-79
2022/09/30 06:40:59;;;;;;;22.85;11.55;;;6.30;99.90;;;-144.05;79.57;125687.94;5035583;28;20024;-79
2022/09/30 06:43:25;;;;;;;21.40;11.00;;;6.50;99.90;;;-144.05;78.85;125687.94;5035909;28;20095;-79
2022/09/30 06:45:51;;;;;;;18.20;11.85;;;6.70;99.90;;;-144.05;78.38;125687.94;5035926;28;20033;-79
2022/09/30 06:48:18;;;;;;;19.42;10.82;;;6.90;99.90;;;-144.05;77.97;125687.94;5036756;28;20038;-79
2022/09/30 06:50:44;;;;;;;20.77;11.40;;;7.20;99.90;;;-144.05;76.82;125687.94;5038302;28;20152;-78
2022/09/30 06:53:12;;;;;;;21.83;12.02;;;7.40;99.90;;;-144.05;76.29;125687.94;5034547;28;20441;-77
2022/09/30 06:55:38;;;;;;;20.52;10.77;;;7.70;99.90;;;-144.05;74.75;125687.94;5035478;28;20033;-76
2022/09/30 06:58:15;;;;;;;14.18;9.70;;;8.00;99.90;;;-144.05;74.04;125687.94;5035260;28;20113;-77
2022/09/30 07:00:41;;;;;;;20.27;11.55;;;8.20;99.90;;;-144.05;73.22;125687.94;5036378;28;20025;-78
2022/09/30 07:03:24;;;;;;;19.65;10.35;;;8.50;99.90;;;-144.05;71.22;125687.94;5036747;28;20384;-77
2022/09/30 07:06:04;;;;;;;14.23;9.00;;;8.60;99.90;;;-144.05;71.42;125687.94;5038371;28;20127;-80
2022/09/30 07:08:34;;;;;;;18.40;9.60;;;8.80;99.90;;;-144.05;71.33;125687.94;5036435;28;20037;-79
2022/09/30 07:11:13;;;;;;;19.55;11.73;;;9.10;99.90;;;-144.05;70.99;125687.94;5036069;28;20033;-75
2022/09/30 07:13:42;;;;;;;13.52;10.13;;;9.20;99.90;;;-144.05;70.10;125687.94;5036782;28;20033;-81
2022/09/30 07:16:13;;;;;;;15.00;9.48;;;9.40;99.90;;;-144.05;69.26;125687.94;5035047;28;20033;-78
2022/09/30 07:18:41;;;;;;;15.63;10.75;;;9.60;99.90;;;-144.05;68.35;125687.94;5036605;28;20030;-80
2022/09/30 07:21:09;;;;;;;18.75;10.30;;;9.80;99.90;;;-144.05;67.61;125687.94;5038375;28;20028;-82
2022/09/30 07:23:35;;;;;;;17.23;10.15;;;9.90;99.90;;;-144.05;67.38;125687.94;5036703;28;20044;-80
2022/09/30 07:26:04;;;;;;;18.42;9.35;;;10.00;99.90;;;-144.05;66.83;125687.94;5042963;28;20026;-81
2022/09/30 07:28:35;;;;;;;15.23;9.57;;;10.10;99.90;;;-144.05;67.92;125687.94;5043386;28;20033;-78
2022/09/30 07:31:15;;;;;;;15.48;9.40;;;10.20;99.90;;;-144.05;67.02;125687.94;5042633;28;20057;-79
2022/09/30 07:33:44;;;;;;;15.98;10.50;;;10.50;99.90;;;-144.05;66.29;125687.94;5044173;28;20076;-78
2022/09/30 07:36:14;;;;;;;15.88;9.77;;;10.70;99.90;;;-144.05;66.27;125687.94;5033222;28;20551;-77
2022/09/30 07:38:41;;;;;;;13.13;9.75;;;10.90;99.90;;;-144.05;66.00;125687.94;5034320;28;20029;-78
2022/09/30 07:41:16;;;;;;;16.48;8.82;;;11.20;99.90;;;-144.05;64.43;125687.94;5033228;28;20542;-77
2022/09/30 07:43:45;;;;;;;15.02;8.48;;;11.40;99.90;;;-144.05;63.95;125687.94;5034387;28;20040;-77
2022/09/30 07:46:24;;;;;;;15.38;8.73;;;11.50;99.90;;;-144.05;63.89;125687.94;5034407;28;20060;-77
2022/09/30 07:48:56;;;;;;;15.63;8.82;;;11.80;99.90;;;-144.05;63.03;125687.94;5033312;28;20033;-78
2022/09/30 07:51:26;;;;;;;13.50;8.30;;;12.00;99.90;;;-144.05;63.43;125687.94;5034188;28;20048;-78
2022/09/30 07:54:04;;;;;;;10.88;8.15;;;12.20;99.90;;;-144.05;62.46;125687.94;5034550;28;20029;-78
2022/09/30 07:56:32;;;;;;;16.90;8.05;;;12.50;99.90;;;-144.05;61.57;125687.94;5032857;28;20060;-78
2022/09/30 07:59:00;;;;;;;16.25;8.77;;;12.90;99.90;;;-144.05;60.66;125687.94;5034251;28;20052;-78
2022/09/30 08:01:30;;;;;;;14.50;8.35;;;13.10;99.90;;;-144.05;59.83;125687.94;5043925;28;20033;-77
2022/09/30 08:04:01;;;;;;;13.75;9.27;;;13.40;99.90;;;-144.05;60.01;125687.94;5033630;28;20030;-77
2022/09/30 08:06:31;;;;;;;12.00;8.20;;;13.50;99.90;;;-144.05;59.34;125687.94;5033650;28;20069;-77
2022/09/30 08:08:58;;;;;;;13.20;8.05;;;13.70;99.90;;;-144.05;58.67;125687.94;5033321;28;20041;-78
2022/09/30 08:11:25;;;;;;;12.93;8.75;;;14.00;99.90;;;-144.05;56.71;125687.94;5033802;28;20037;-77
2022/09/30 08:13:54;;;;;;;15.98;7.15;;;14.10;99.90;;;-144.05;57.36;125687.94;5033595;28;20033;-79
2022/09/30 08:16:23;;;;;;;12.02;8.02;;;14.20;99.90;;;-144.05;57.31;125687.94;5033995;28;20033;-78
2022/09/30 08:18:55;;;;;;;15.85;8.68;;;14.30;99.90;;;-144.05;56.74;125687.94;5035264;28;20037;-79
2022/09/30 08:21:22;;;;;;;14.43;8.27;;;14.20;99.90;;;-144.05;56.86;125687.94;5034601;28;20026;-79
2022/09/30 08:23:48;;;;;;;14.25;8.10;;;14.30;99.90;;;-144.05;57.10;125687.94;5033996;28;20033;-81
2022/09/30 08:26:15;;;;;;;13.80;8.07;;;14.40;99.90;;;-144.05;55.63;125687.94;5033986;28;20262;-79
2022/09/30 08:28:45;;;;;;;10.77;6.50;;;14.50;99.90;;;-144.05;56.15;125687.94;5033708;28;20503;-77
2022/09/30 08:31:23;;;;;;;9.13;5.95;;;14.70;99.90;;;-144.05;55.30;125687.94;5033294;28;20369;-77
2022/09/30 08:33:50;;;;;;;10.23;6.57;;;15.10;99.90;;;-144.05;54.45;125687.94;5033122;28;20053;-78
2022/09/30 08:36:26;;;;;;;11.00;6.43;;;15.20;99.90;;;-144.05;53.61;125687.94;5033688;28;20029;-78
2022/09/30 08:38:53;;;;;;;11.15;6.60;;;15.50;99.90;;;-144.05;53.45;125687.94;5033648;28;20403;-78
2022/09/30 08:41:38;;;;;;;9.35;6.60;;;15.50;99.90;;;-144.05;54.11;125687.94;5032524;28;20056;-77
2022/09/30 08:44:45;;;;;;;17.80;6.05;;;15.60;99.90;;;-144.05;51.97;125687.94;5033669;28;20376;-78
2022/09/30 08:47:48;;;;;;;;;;;15.70;99.90;;;-144.05;52.94;125687.94;5079282;23;20231;-76
2022/09/30 08:50:44;;;;;;;8.93;6.40;;;15.70;99.90;;;-144.05;53.43;125687.94;5055339;28;20366;-77
2022/09/30 08:53:24;;;;;;;10.70;6.10;;;15.60;99.90;;;-144.05;54.50;125687.94;5053483;28;20047;-77
2022/09/30 08:55:55;;;;;;;13.07;6.70;;;15.70;99.90;;;-144.05;52.83;125687.94;5056664;28;20036;-77
2022/09/30 08:58:40;;;;;;;13.73;6.57;;;15.60;99.90;;;-144.05;53.52;125687.94;5053579;28;20344;-76
2022/09/30 09:01:45;;;;;;;11.50;6.28;;;15.70;99.90;;;-144.05;53.28;125687.94;5054868;28;20025;-78
2022/09/30 09:04:13;;;;;;;11.75;6.60;;;15.50;99.90;;;-144.05;53.61;125687.94;5054796;28;20040;-77
2022/09/30 09:07:25;;;;;;;13.07;6.97;;;15.20;99.90;;;-144.05;53.96;125687.94;5055896;28;20104;-78
2022/09/30 09:10:36;;;;;;;12.30;6.68;;;15.30;99.90;;;-144.05;53.50;125687.94;5055296;28;20112;-78
2022/09/30 09:13:52;;;;;;;12.10;6.28;;;15.30;99.90;;;-144.05;52.17;125687.94;5053670;28;20036;-79
2022/09/30 09:17:20;;;;;;;9.48;6.85;;;15.60;99.90;;;-144.05;51.51;125687.94;5056536;28;20025;-77
2022/09/30 09:20:00;;;;;;;13.23;6.20;;;15.70;99.90;;;-144.05;51.30;125687.94;5061535;28;20045;-80
2022/09/30 09:22:30;;;;;;;12.15;7.15;;;15.50;99.90;;;-144.05;52.18;125687.94;5054038;28;20090;-77
2022/09/30 09:25:00;;;;;;;10.57;6.20;;;15.70;99.90;;;-144.05;51.23;125687.94;5054422;28;20029;-78
2022/09/30 09:27:50;;;;;;;11.35;6.10;;;15.80;99.90;;;-144.05;50.68;125687.94;5056250;28;20025;-78
2022/09/30 09:30:26;;;;;;;12.93;6.25;;;16.00;99.90;;;-144.05;49.80;125687.94;5054694;28;20036;-77
2022/09/30 09:33:09;;;;;;;10.25;5.50;;;16.00;99.90;;;-144.05;49.42;125687.94;5051637;28;20041;-77
2022/09/30 09:35:40;;;;;;;11.07;6.00;;;16.40;99.90;;;-144.05;48.94;125687.94;5053100;28;20115;-77
2022/09/30 09:39:02;;;;;;;13.52;6.20;;;16.40;99.90;;;-144.05;50.68;125687.94;5053153;28;20032;-76
2022/09/30 09:41:45;;;;;;;8.55;5.85;;;16.20;99.90;;;-144.05;48.43;125687.94;5053481;28;20029;-79
2022/09/30 09:44:47;;;;;;;8.52;5.13;;;16.50;99.90;;;-144.05;49.18;125687.94;5053829;28;20060;-78
2022/09/30 09:47:14;;;;;;;8.15;5.32;;;16.40;99.90;;;-144.05;48.60;125687.94;5054497;28;20516;-78
2022/09/30 09:49:58;;;;;;;10.68;5.80;;;16.50;99.90;;;-144.05;48.08;125687.94;5051945;28;20044;-81
2022/09/30 09:53:19;;;;;;;8.82;5.43;;;16.50;99.90;;;-144.05;47.88;125687.94;5053473;28;20040;-77
2022/09/30 09:55:53;;;;;;;8.15;5.15;;;16.60;99.90;;;-144.05;47.99;125687.94;5054252;28;20021;-78
2022/09/30 09:58:20;;;;;;;10.45;4.75;;;16.80;99.90;;;-144.05;47.19;125687.94;5053671;28;20055;-80
2022/09/30 10:03:27;;;;;;;7.30;4.53;;;17.00;99.90;;;-144.05;46.97;125687.94;5053960;28;20115;-79
2022/09/30 10:06:11;;;;;;;10.82;4.82;;;16.80;99.90;;;-144.05;47.74;125687.94;5053860;28;20029;-78
2022/09/30 10:08:55;;;;;;;7.13;4.40;;;16.70;99.90;;;-144.05;46.35;125687.94;5053111;28;20439;-80
2022/09/30 10:11:26;;;;;;;8.55;4.65;;;16.80;99.90;;;-144.05;48.06;125687.94;5056138;28;20029;-77
2022/09/30 10:13:59;;;;;;;7.65;4.45;;;16.70;99.90;;;-144.05;47.65;125687.94;5052165;28;20071;-77
2022/09/30 10:16:34;;;;;;;8.70;4.45;;;16.70;99.90;;;-144.05;47.38;125687.94;5055408;28;20424;-78
2022/09/30 10:19:15;;;;;;;7.38;3.45;;;16.80;99.90;;;-144.05;46.11;125687.94;5058756;28;20029;-80
2022/09/30 10:21:41;;;;;;;5.47;3.45;;;16.80;99.90;;;-144.05;46.45;125687.94;5073828;28;20040;-78
2022/09/30 10:24:30;;;;;;;4.68;3.28;;;17.00;99.90;;;-144.05;45.88;125687.94;5056507;28;20060;-77
2022/09/30 10:26:56;;;;;;;7.07;3.78;;;17.40;99.90;;;-144.05;43.92;125687.94;5060338;28;20063;-78
2022/09/30 10:29:35;;;;;;;7.32;4.10;;;17.80;99.90;;;-144.05;43.86;125687.94;5059186;28;20033;-77
2022/09/30 10:32:08;;;;;;;8.43;4.10;;;17.80;99.90;;;-144.05;43.46;125687.94;5056505;28;20033;-78
2022/09/30 10:34:43;;;;;;;6.45;3.65;;;17.80;99.90;;;-144.05;45.26;125687.94;5057390;28;20100;-78
2022/09/30 10:37:27;;;;;;;9.27;4.35;;;17.60;99.90;;;-144.05;43.32;125687.94;5058684;28;20025;-80